Time;durP1;ratioP1;P1;durP2;ratioP2;P2;SDS_P1;SDS_P2;PMS_P1;PMS_P2;Temp;Humidity;BMP_temperature;BMP_pressure;BME280_temperature;BME280_humidity;BME280_pressure;Samples;Min_cycle;Max_cycle;Signal;HPM_P1;HPM_P2
2022/09/24 00:00:26;;;;;;;;;;;;;;;11.27;79.82;100453.75;4933922;29;19981;-72
2022/09/24 00:03:29;;;;;;;;;;;;;;;11.25;79.88;100450.34;4933614;29;19937;-73
2022/09/24 00:06:39;;;;;;;;;;;;;;;11.21;79.76;100446.22;4934671;29;19953;-73
2022/09/24 00:09:42;;;;;;;;;;;;;;;11.27;79.54;100448.50;4935165;29;19921;-73
2022/09/24 00:12:46;;;;;;;;;;;;;;;11.33;79.39;100447.31;4935420;29;19921;-73
2022/09/24 00:15:50;;;;;;;;;;;;;;;11.17;79.79;100442.09;4935136;29;19926;-72
2022/09/24 00:18:53;;;;;;;;;;;;;;;11.18;79.97;100443.78;4934077;29;19925;-72
2022/09/24 00:21:56;;;;;;;;;;;;;;;11.26;79.39;100440.72;4935139;29;19921;-72
2022/09/24 00:28:21;;;;;;;;;;;;;;;11.16;79.74;100440.41;4935054;29;20298;-72
2022/09/24 00:31:25;;;;;;;;;;;;;;;11.08;80.06;100445.22;4935267;29;19921;-72
2022/09/24 00:34:28;;;;;;;;;;;;;;;11.07;80.01;100438.28;4935030;29;19930;-73
2022/09/24 00:37:32;;;;;;;;;;;;;;;11.06;80.09;100436.59;4934159;29;20033;-72
2022/09/24 00:40:36;;;;;;;;;;;;;;;11.09;79.74;100439.06;4934792;29;19926;-72
2022/09/24 00:43:40;;;;;;;;;;;;;;;11.14;79.53;100439.66;4923354;29;19921;-72
2022/09/24 00:46:43;;;;;;;;;;;;;;;11.07;79.54;100435.66;4935020;29;19942;-72
2022/09/24 00:49:48;;;;;;;;;;;;;;;11.02;79.64;100438.56;4935352;29;20297;-72
2022/09/24 00:52:56;;;;;;;;;;;;;;;10.92;79.80;100432.16;4934946;29;19981;-73
2022/09/24 00:56:01;;;;;;;;;;;;;;;10.91;79.70;100426.09;4938904;29;19921;-72
2022/09/24 00:59:07;;;;;;;;;;;;;;;10.98;79.43;100421.34;4938470;29;19965;-71
2022/09/24 01:02:11;;;;;;;;;;;;;;;10.84;79.56;100422.09;4938380;29;20462;-72
2022/09/24 01:05:15;;;;;;;;;;;;;;;10.77;79.75;100418.13;4938426;29;20491;-72
2022/09/24 01:08:19;;;;;;;;;;;;;;;10.69;80.34;100415.94;4938184;29;19926;-73
2022/09/24 01:11:29;;;;;;;;;;;;;;;10.74;79.90;100413.06;4938687;29;19962;-72
2022/09/24 01:14:45;;;;;;;;;;;;;;;10.87;79.11;100402.78;4938250;29;20294;-73
2022/09/24 01:17:49;;;;;;;;;;;;;;;10.83;78.78;100402.09;4938211;29;20349;-72
2022/09/24 01:21:05;;;;;;;;;;;;;;;10.87;78.90;100406.22;4938000;29;19926;-72
2022/09/24 01:24:28;;;;;;;;;;;;;;;10.83;78.78;100401.25;4937788;29;19969;-72
2022/09/24 01:27:51;;;;;;;;;;;;;;;10.90;78.83;100403.44;4938109;29;20389;-72
2022/09/24 01:30:59;;;;;;;;;;;;;;;10.94;78.56;100394.53;4937810;29;19962;-72
2022/09/24 01:34:04;;;;;;;;;;;;;;;10.89;78.60;100400.94;4938095;29;19921;-72
2022/09/24 01:37:07;;;;;;;;;;;;;;;10.94;78.81;100397.13;4937730;29;19922;-72
2022/09/24 01:40:11;;;;;;;;;;;;;;;10.91;78.71;100392.06;4937765;29;19926;-72
2022/09/24 01:43:18;;;;;;;;;;;;;;;10.87;79.32;100395.75;4937683;29;20339;-72
2022/09/24 01:46:22;;;;;;;;;;;;;;;10.88;79.46;100386.13;4937391;29;20342;-73
2022/09/24 01:49:26;;;;;;;;;;;;;;;11.00;79.52;100387.25;4937502;29;20432;-72
2022/09/24 01:52:33;;;;;;;;;;;;;;;10.92;79.95;100385.91;4937265;29;20338;-73
2022/09/24 01:55:37;;;;;;;;;;;;;;;10.73;80.10;100385.25;4937977;29;19925;-72
2022/09/24 01:58:50;;;;;;;;;;;;;;;10.64;80.40;100378.72;4926084;29;19930;-72
2022/09/24 02:01:56;;;;;;;;;;;;;;;10.81;79.81;100374.34;4937736;29;19994;-73
2022/09/24 02:05:20;;;;;;;;;;;;;;;10.79;79.91;100368.38;4937199;29;19922;-72
2022/09/24 02:08:28;;;;;;;;;;;;;;;10.81;79.67;100361.25;4937574;29;19934;-73
2022/09/24 02:11:32;;;;;;;;;;;;;;;10.73;79.54;100356.47;4937915;29;19966;-72
2022/09/24 02:14:38;;;;;;;;;;;;;;;10.76;79.45;100361.53;4938119;29;19922;-72
2022/09/24 02:17:44;;;;;;;;;;;;;;;10.64;80.33;100355.19;4937535;29;20013;-72
2022/09/24 02:20:49;;;;;;;;;;;;;;;10.56;80.72;100356.53;4937206;29;19925;-72
2022/09/24 02:23:57;;;;;;;;;;;;;;;10.72;79.87;100354.78;4925402;29;20330;-72
2022/09/24 02:27:00;;;;;;;;;;;;;;;10.75;79.98;100353.75;4936853;29;19921;-72
2022/09/24 02:30:04;;;;;;;;;;;;;;;10.66;80.37;100352.53;4937231;29;20401;-72
2022/09/24 02:34:19;;;;;;;;;;;;;;;10.67;80.70;100359.44;4936760;29;19925;-72
2022/09/24 02:36:33;;;;;;;;;;;;;;;10.50;81.64;100359.50;4937460;29;19962;-72
2022/09/24 02:39:37;;;;;;;;;;;;;;;10.53;81.46;100348.88;4936768;29;20290;-72
2022/09/24 02:42:41;;;;;;;;;;;;;;;10.53;81.28;100346.25;4935927;29;19921;-72
2022/09/24 02:45:44;;;;;;;;;;;;;;;10.66;80.98;100348.13;4935926;29;19977;-72
2022/09/24 02:48:48;;;;;;;;;;;;;;;10.52;81.07;100350.63;4934328;29;19922;-72
2022/09/24 02:51:52;;;;;;;;;;;;;;;10.53;81.03;100357.56;4608262;28;10001480;-72
2022/09/24 02:54:55;;;;;;;;;;;;;;;10.48;81.11;100347.34;4950065;28;19920;-72
2022/09/24 02:58:15;;;;;;;;;;;;;;;10.38;81.29;100358.41;4950532;28;20397;-72
2022/09/24 03:01:24;;;;;;;;;;;;;;;10.34;81.32;100360.34;4951238;28;19953;-72
2022/09/24 03:04:30;;;;;;;;;;;;;;;10.41;81.05;100359.06;4951150;28;20020;-72
2022/09/24 03:07:38;;;;;;;;;;;;;;;10.33;81.30;100370.88;4938860;29;19929;-72
2022/09/24 03:10:43;;;;;;;;;;;;;;;10.35;81.25;100369.88;4952055;29;19925;-72
2022/09/24 03:13:49;;;;;;;;;;;;;;;10.43;81.03;100367.69;4951273;29;19925;-73
2022/09/24 03:16:53;;;;;;;;;;;;;;;10.43;81.29;100362.47;4952387;28;19922;-72
2022/09/24 03:19:57;;;;;;;;;;;;;;;10.51;80.71;100358.59;4951766;29;19929;-72
2022/09/24 03:23:01;;;;;;;;;;;;;;;10.51;80.84;100359.41;4951524;29;20321;-73
2022/09/24 03:26:06;;;;;;;;;;;;;;;10.69;80.02;100362.81;4951356;29;19969;-72
2022/09/24 03:29:14;;;;;;;;;;;;;;;10.40;81.52;100356.53;4951051;29;19928;-72
2022/09/24 03:32:22;;;;;;;;;;;;;;;10.36;81.95;100350.63;4938676;29;20345;-72
2022/09/24 03:35:29;;;;;;;;;;;;;;;10.21;82.80;100356.63;4950364;29;19920;-72
2022/09/24 03:38:34;;;;;;;;;;;;;;;10.27;82.44;100350.28;4912324;29;19973;-72
2022/09/24 03:41:37;;;;;;;;;;;;;;;10.43;81.70;100356.38;4912267;29;19963;-72
2022/09/24 03:44:43;;;;;;;;;;;;;;;10.23;81.54;100344.34;4912889;29;20382;-72
2022/09/24 03:47:47;;;;;;;;;;;;;;;10.28;81.12;100347.59;4912299;29;20426;-72
2022/09/24 03:50:53;;;;;;;;;;;;;;;10.38;80.93;100332.28;4922881;29;20018;-72
2022/09/24 03:53:58;;;;;;;;;;;;;;;10.19;81.77;100337.63;4932451;29;19964;-72
2022/09/24 03:57:04;;;;;;;;;;;;;;;10.23;81.45;100333.91;4931311;29;19965;-73
2022/09/24 04:00:09;;;;;;;;;;;;;;;10.17;81.36;100329.00;4935061;29;19929;-72
2022/09/24 04:03:14;;;;;;;;;;;;;;;9.91;82.73;100327.78;4937065;29;19929;-72
2022/09/24 04:24:44;;;;;;;;;;;;;;;10.22;80.89;100333.06;4944291;29;19996;-73
2022/09/24 04:37:25;;;;;;;;;;;;;;;10.15;80.13;100323.03;4913231;29;20437;-72
2022/09/24 04:40:32;;;;;;;;;;;;;;;10.26;79.56;100320.69;4913268;29;20018;-72
2022/09/24 04:43:37;;;;;;;;;;;;;;;10.18;78.58;100317.66;4914041;29;19926;-73
2022/09/24 04:46:42;;;;;;;;;;;;;;;10.09;79.36;100323.34;4912829;29;20410;-72
2022/09/24 04:49:47;;;;;;;;;;;;;;;10.02;80.20;100328.91;4915044;29;20325;-73
2022/09/24 04:52:53;;;;;;;;;;;;;;;9.91;80.73;100320.78;4932253;29;19929;-72
2022/09/24 04:55:59;;;;;;;;;;;;;;;10.01;80.80;100323.75;4936791;29;19945;-72
2022/09/24 04:59:33;;;;;;;;;;;;;;;10.13;80.33;100322.25;4939005;29;19926;-72
2022/09/24 05:02:45;;;;;;;;;;;;;;;10.13;79.61;100322.25;4932341;29;20373;-72
2022/09/24 05:05:50;;;;;;;;;;;;;;;10.09;79.73;100323.34;4934313;29;20329;-72
2022/09/24 05:08:57;;;;;;;;;;;;;;;10.17;79.33;100321.16;4595764;29;10000291;-73
2022/09/24 05:12:02;;;;;;;;;;;;;;;10.07;79.33;100314.75;4924483;29;19922;-72
2022/09/24 05:15:06;;;;;;;;;;;;;;;10.20;78.84;100323.63;4936960;29;20293;-73
2022/09/24 05:18:09;;;;;;;;;;;;;;;10.10;79.06;100322.41;4937194;29;19921;-73
2022/09/24 05:21:13;;;;;;;;;;;;;;;10.12;79.37;100321.41;4938109;29;19942;-73
2022/09/24 05:24:17;;;;;;;;;;;;;;;10.15;79.34;100329.09;4957497;29;19926;-73
2022/09/24 05:27:22;;;;;;;;;;;;;;;10.20;78.84;100321.00;4955888;28;20293;-73
2022/09/24 05:30:25;;;;;;;;;;;;;;;9.96;79.69;100325.78;4948695;29;20392;-73
2022/09/24 05:33:29;;;;;;;;;;;;;;;10.06;79.62;100323.53;4956363;29;19925;-73
2022/09/24 05:36:32;;;;;;;;;;;;;;;10.05;79.43;100335.75;4957212;29;20005;-72
2022/09/24 05:39:37;;;;;;;;;;;;;;;10.08;79.61;100345.16;4960947;28;20481;-73
2022/09/24 05:42:41;;;;;;;;;;;;;;;9.99;80.02;100349.97;4611047;28;10000082;-73
2022/09/24 05:45:45;;;;;;;;;;;;;;;10.09;79.79;100346.88;4967267;28;20373;-73
2022/09/24 05:48:49;;;;;;;;;;;;;;;9.96;80.69;100341.44;4956418;29;20009;-73
2022/09/24 05:51:52;;;;;;;;;;;;;;;9.99;80.50;100339.50;4953607;28;20034;-73
2022/09/24 05:54:56;;;;;;;;;;;;;;;10.17;79.79;100339.44;4951925;28;19925;-73
2022/09/24 05:58:02;;;;;;;;;;;;;;;10.06;80.16;100350.47;4952072;28;20178;-71
2022/09/24 06:01:06;;;;;;;;;;;;;;;10.04;80.92;100349.72;4951157;28;19929;-72
2022/09/24 06:04:11;;;;;;;;;;;;;;;10.16;80.02;100354.28;4949860;28;19921;-72
2022/09/24 06:07:15;;;;;;;;;;;;;;;10.11;80.21;100360.69;4952002;28;20281;-72
2022/09/24 06:10:18;;;;;;;;;;;;;;;9.96;80.80;100357.97;4951031;28;19921;-71
2022/09/24 06:13:22;;;;;;;;;;;;;;;10.04;80.94;100359.31;4952310;28;19921;-72
2022/09/24 06:16:25;;;;;;;;;;;;;;;10.00;81.04;100350.81;4952563;28;19953;-72
2022/09/24 06:19:29;;;;;;;;;;;;;;;9.92;81.22;100348.59;4956894;28;19947;-72
2022/09/24 06:22:32;;;;;;;;;;;;;;;10.04;81.04;100356.72;4938855;28;20468;-72
2022/09/24 06:25:36;;;;;;;;;;;;;;;10.00;81.33;100362.09;4930751;29;20002;-72
2022/09/24 06:28:40;;;;;;;;;;;;;;;10.13;80.86;100364.91;4943664;29;19998;-72
2022/09/24 06:31:45;;;;;;;;;;;;;;;10.10;80.42;100367.69;4939625;29;19952;-71
2022/09/24 06:34:49;;;;;;;;;;;;;;;10.10;80.69;100366.84;4930184;29;20475;-72
2022/09/24 06:37:53;;;;;;;;;;;;;;;10.38;79.60;100355.78;4940019;29;19937;-72
2022/09/24 06:40:58;;;;;;;;;;;;;;;10.41;79.58;100353.00;4945631;29;19933;-72
2022/09/24 06:44:01;;;;;;;;;;;;;;;10.41;79.82;100342.56;4940321;29;19930;-72
2022/09/24 06:47:06;;;;;;;;;;;;;;;10.56;79.22;100343.47;4938148;29;19977;-72
2022/09/24 06:50:10;;;;;;;;;;;;;;;10.51;79.27;100353.34;4938979;29;20044;-72
2022/09/24 06:53:13;;;;;;;;;;;;;;;10.34;80.14;100351.63;4939763;29;19969;-72
2022/09/24 06:56:17;;;;;;;;;;;;;;;10.48;79.33;100351.75;4942318;29;19980;-72
2022/09/24 06:59:20;;;;;;;;;;;;;;;10.45;79.12;100342.28;4943729;29;19925;-72
2022/09/24 07:02:24;;;;;;;;;;;;;;;10.40;79.06;100351.31;4941021;29;20282;-72
2022/09/24 07:05:29;;;;;;;;;;;;;;;10.35;79.12;100354.19;4940691;29;19961;-72
2022/09/24 07:08:57;;;;;;;;;;;;;;;10.42;79.34;100352.91;4943935;29;19938;-73
2022/09/24 07:12:04;;;;;;;;;;;;;;;10.45;79.60;100350.13;4942255;29;19993;-73
2022/09/24 07:15:08;;;;;;;;;;;;;;;10.60;79.06;100345.00;4945862;29;19921;-74
2022/09/24 07:18:14;;;;;;;;;;;;;;;10.70;78.56;100360.09;4950130;29;19921;-72
2022/09/24 07:21:17;;;;;;;;;;;;;;;10.87;78.88;100355.69;4937075;29;19925;-72
2022/09/24 07:24:21;;;;;;;;;;;;;;;10.99;77.38;100359.41;4928996;29;19965;-74
2022/09/24 07:27:25;;;;;;;;;;;;;;;10.91;77.49;100358.06;4927452;29;19982;-72
2022/09/24 07:30:29;;;;;;;;;;;;;;;10.92;77.96;100354.50;4932137;29;20029;-71
2022/09/24 07:33:33;;;;;;;;;;;;;;;10.97;77.74;100356.84;4937254;29;19945;-72
2022/09/24 07:36:36;;;;;;;;;;;;;;;11.10;77.75;100363.09;4950522;29;19922;-73
2022/09/24 07:39:40;;;;;;;;;;;;;;;11.08;78.52;100366.72;4949650;29;20417;-73
2022/09/24 07:42:45;;;;;;;;;;;;;;;11.31;78.54;100370.63;4944362;29;19962;-73
2022/09/24 07:45:51;;;;;;;;;;;;;;;11.46;78.08;100374.16;4951679;29;19982;-73
2022/09/24 07:48:55;;;;;;;;;;;;;;;11.50;77.93;100368.63;4951615;28;19964;-72
2022/09/24 07:51:59;;;;;;;;;;;;;;;11.53;77.43;100367.63;4953381;29;20317;-73
2022/09/24 07:55:03;;;;;;;;;;;;;;;11.48;77.61;100369.66;4944114;28;19925;-72
2022/09/24 07:58:13;;;;;;;;;;;;;;;11.56;76.97;100370.06;4932986;29;19969;-72
2022/09/24 08:01:17;;;;;;;;;;;;;;;11.50;76.77;100358.16;4932124;29;19934;-73
2022/09/24 08:04:20;;;;;;;;;;;;;;;11.53;77.21;100354.53;4931602;29;19938;-72
2022/09/24 08:07:24;;;;;;;;;;;;;;;11.56;77.92;100365.66;4932524;29;19922;-73
2022/09/24 08:10:27;;;;;;;;;;;;;;;11.64;77.71;100362.56;4930394;29;20001;-73
2022/09/24 08:13:32;;;;;;;;;;;;;;;11.47;78.72;100360.13;4931426;29;20381;-73
2022/09/24 08:16:38;;;;;;;;;;;;;;;11.64;78.88;100365.19;4938323;29;19922;-73
2022/09/24 08:19:45;;;;;;;;;;;;;;;11.81;78.18;100359.81;4942636;29;19925;-73
2022/09/24 08:22:48;;;;;;;;;;;;;;;11.99;77.51;100352.63;4940317;28;20374;-73
2022/09/24 08:25:55;;;;;;;;;;;;;;;12.09;77.48;100343.28;4949835;28;19929;-73
2022/09/24 08:28:58;;;;;;;;;;;;;;;12.18;77.29;100351.50;4949893;28;20464;-73
2022/09/24 08:32:02;;;;;;;;;;;;;;;12.15;77.29;100335.97;4953682;28;19922;-73
2022/09/24 08:35:07;;;;;;;;;;;;;;;12.44;76.99;100347.25;4949830;28;20262;-72
2022/09/24 08:38:11;;;;;;;;;;;;;;;12.59;76.36;100354.16;4950662;28;19921;-72
2022/09/24 08:41:35;;;;;;;;;;;;;;;12.54;75.52;100349.22;4952146;28;20115;-72
2022/09/24 08:49:04;;;;;;;;;;;;;;;12.57;75.93;100348.16;4957717;28;19929;-73
2022/09/24 08:52:25;;;;;;;;;;;;;;;12.68;75.20;100340.47;4949330;28;19921;-73
2022/09/24 08:55:34;;;;;;;;;;;;;;;12.83;75.06;100337.78;4950647;28;19921;-73
2022/09/24 08:58:44;;;;;;;;;;;;;;;13.09;72.76;100329.06;4949560;28;19922;-73
2022/09/24 09:02:02;;;;;;;;;;;;;;;13.10;73.78;100322.88;4930882;29;20719;-73
2022/09/24 09:05:06;;;;;;;;;;;;;;;13.05;74.82;100327.59;4958712;28;19926;-73
2022/09/24 09:08:19;;;;;;;;;;;;;;;13.00;74.47;100332.31;4950002;28;19921;-73
2022/09/24 09:11:27;;;;;;;;;;;;;;;13.03;74.82;100335.56;4937847;28;20270;-73
2022/09/24 09:14:30;;;;;;;;;;;;;;;13.09;74.58;100336.97;4962138;28;19980;-73
2022/09/24 09:17:34;;;;;;;;;;;;;;;13.19;73.74;100335.41;4279377;28;10001239;-73
2022/09/24 09:20:42;;;;;;;;;;;;;;;13.39;73.36;100346.38;4940682;28;19977;-73
2022/09/24 09:23:50;;;;;;;;;;;;;;;13.69;74.43;100338.25;4952951;28;20004;-73
2022/09/24 09:26:55;;;;;;;;;;;;;;;13.80;73.30;100338.34;4953634;28;19933;-73
2022/09/24 09:30:03;;;;;;;;;;;;;;;13.85;71.90;100338.03;4952959;28;19940;-73
2022/09/24 09:33:23;;;;;;;;;;;;;;;13.79;73.18;100339.28;4952352;28;19925;-73
2022/09/24 09:36:47;;;;;;;;;;;;;;;13.84;71.92;100334.53;4952945;28;20417;-73
2022/09/24 09:39:56;;;;;;;;;;;;;;;13.78;72.52;100321.81;4946204;28;20425;-74
2022/09/24 09:43:07;;;;;;;;;;;;;;;13.96;72.40;100319.72;4956182;28;19969;-73
2022/09/24 09:46:14;;;;;;;;;;;;;;;14.13;72.71;100324.63;4969750;28;20399;-73
2022/09/24 09:49:19;;;;;;;;;;;;;;;14.31;71.71;100322.50;4968386;28;19929;-73
2022/09/24 09:52:25;;;;;;;;;;;;;;;14.46;71.03;100319.75;4951201;29;19969;-73
2022/09/24 09:55:32;;;;;;;;;;;;;;;14.64;72.18;100311.38;4951694;28;20302;-74
2022/09/24 09:58:39;;;;;;;;;;;;;;;14.73;71.64;100312.50;4952446;28;19938;-74
2022/09/24 10:01:44;;;;;;;;;;;;;;;14.77;71.73;100302.56;4951752;28;19925;-74
2022/09/24 10:04:51;;;;;;;;;;;;;;;14.88;71.11;100305.28;4952540;28;19938;-73
2022/09/24 10:07:58;;;;;;;;;;;;;;;14.87;70.56;100304.44;4952758;28;19922;-73
2022/09/24 10:11:02;;;;;;;;;;;;;;;15.04;70.63;100305.81;4954969;28;20016;-73
2022/09/24 10:14:08;;;;;;;;;;;;;;;15.07;69.58;100302.94;4956080;28;19924;-73
2022/09/24 10:17:15;;;;;;;;;;;;;;;15.18;69.52;100293.41;4944776;28;19921;-73
2022/09/24 10:20:22;;;;;;;;;;;;;;;15.23;68.96;100284.22;4956286;28;19965;-73
2022/09/24 10:23:30;;;;;;;;;;;;;;;15.32;68.23;100277.41;4955958;28;19925;-73
2022/09/24 10:26:38;;;;;;;;;;;;;;;15.33;68.59;100276.44;4955531;28;19970;-73
2022/09/24 10:33:07;;;;;;;;;;;;;;;15.34;68.83;100270.22;4955939;28;19962;-73
2022/09/24 10:36:21;;;;;;;;;;;;;;;15.35;67.98;100269.28;4955980;28;19972;-73
2022/09/24 10:39:24;;;;;;;;;;;;;;;15.46;67.22;100268.44;4944241;29;19926;-73
2022/09/24 10:42:29;;;;;;;;;;;;;;;15.51;66.79;100259.25;4956236;28;20418;-72
2022/09/24 10:45:39;;;;;;;;;;;;;;;15.42;66.80;100254.66;4955665;29;19922;-72
2022/09/24 10:48:48;;;;;;;;;;;;;;;15.48;67.58;100254.19;4956012;29;19960;-72
2022/09/24 10:52:11;;;;;;;;;;;;;;;15.50;67.06;100254.91;4955775;28;20001;-72
2022/09/24 10:55:20;;;;;;;;;;;;;;;15.69;65.96;100253.53;4956037;28;19921;-72
2022/09/24 10:58:27;;;;;;;;;;;;;;;15.91;64.08;100250.88;4955944;28;20337;-72
2022/09/24 11:01:31;;;;;;;;;;;;;;;16.06;62.99;100255.91;4943383;28;19977;-72
2022/09/24 11:04:50;;;;;;;;;;;;;;;16.10;62.14;100254.69;4955412;28;20056;-72
2022/09/24 11:08:13;;;;;;;;;;;;;;;16.20;62.34;100245.09;4955750;28;20329;-72
2022/09/24 11:11:30;;;;;;;;;;;;;;;16.28;61.42;100232.97;4955634;28;20090;-72
2022/09/24 11:14:43;;;;;;;;;;;;;;;16.39;61.33;100236.53;4955251;28;19987;-72
2022/09/24 11:17:59;;;;;;;;;;;;;;;16.35;62.11;100232.47;4955422;29;20060;-72
2022/09/24 11:21:15;;;;;;;;;;;;;;;16.28;62.25;100222.41;4955019;28;19973;-72
2022/09/24 11:24:27;;;;;;;;;;;;;;;16.34;62.11;100231.63;4955474;28;19941;-72
2022/09/24 11:27:40;;;;;;;;;;;;;;;16.36;62.93;100234.97;4955504;28;20289;-72
2022/09/24 11:31:02;;;;;;;;;;;;;;;16.44;62.10;100229.09;4954859;29;19972;-72
2022/09/24 11:34:27;;;;;;;;;;;;;;;16.46;61.40;100229.78;4252068;29;10001528;-72
2022/09/24 11:37:36;;;;;;;;;;;;;;;16.45;61.52;100234.22;4932088;29;20387;-72
2022/09/24 11:40:43;;;;;;;;;;;;;;;16.52;61.87;100232.75;4932337;29;19930;-72
2022/09/24 11:44:08;;;;;;;;;;;;;;;16.68;60.71;100220.94;4931767;29;19965;-72
2022/09/24 11:47:33;;;;;;;;;;;;;;;16.70;60.00;100219.03;4930045;29;19988;-72
2022/09/24 11:50:46;;;;;;;;;;;;;;;16.70;59.38;100222.50;4919884;29;20135;-72
2022/09/24 11:53:57;;;;;;;;;;;;;;;16.75;60.03;100214.22;4929651;29;20466;-72
2022/09/24 11:57:10;;;;;;;;;;;;;;;16.74;57.94;100212.50;4931716;29;19926;-72
2022/09/24 12:00:19;;;;;;;;;;;;;;;16.73;57.82;100214.31;4931940;29;20426;-72
2022/09/24 12:03:25;;;;;;;;;;;;;;;16.78;58.33;100210.47;4932156;29;20015;-72
2022/09/24 12:06:29;;;;;;;;;;;;;;;16.92;60.40;100207.53;4932340;29;19961;-72
2022/09/24 12:09:40;;;;;;;;;;;;;;;16.96;59.32;100206.31;4931645;29;20264;-73
2022/09/24 12:12:46;;;;;;;;;;;;;;;16.99;61.59;100205.22;4932252;29;19921;-72
2022/09/24 12:15:52;;;;;;;;;;;;;;;16.99;60.05;100207.88;4931773;29;19941;-73
2022/09/24 12:19:02;;;;;;;;;;;;;;;17.02;59.33;100194.41;4931591;29;19925;-73
2022/09/24 12:22:07;;;;;;;;;;;;;;;17.22;58.25;100190.06;4931296;29;20017;-73
2022/09/24 12:25:11;;;;;;;;;;;;;;;17.32;57.37;100191.78;4931941;29;19961;-73
2022/09/24 12:32:53;;;;;;;;;;;;;;;17.37;59.33;100186.09;4931601;29;19929;-81
2022/09/24 12:35:31;;;;;;;;;;;;;;;17.49;56.52;100182.41;4958511;28;19933;-73
2022/09/24 12:38:34;;;;;;;;;;;;;;;17.54;55.96;100180.19;4949988;29;20037;-73
2022/09/24 12:41:39;;;;;;;;;;;;;;;17.39;56.71;100187.66;4950062;29;20004;-73
2022/09/24 12:44:54;;;;;;;;;;;;;;;17.50;55.64;100172.66;4950002;29;20392;-73
2022/09/24 12:48:01;;;;;;;;;;;;;;;17.83;56.06;100180.31;4951053;29;19925;-73
2022/09/24 12:51:06;;;;;;;;;;;;;;;18.49;53.80;100177.06;4953672;29;19941;-73
2022/09/24 12:54:25;;;;;;;;;;;;;;;18.33;52.77;100172.31;4953816;29;19921;-73
2022/09/24 12:57:32;;;;;;;;;;;;;;;17.98;51.68;100172.00;4954126;29;19977;-74
2022/09/24 13:00:41;;;;;;;;;;;;;;;17.60;56.71;100168.25;4953979;29;19928;-74
2022/09/24 13:03:45;;;;;;;;;;;;;;;17.36;55.03;100177.34;4954586;28;19936;-74
2022/09/24 13:06:48;;;;;;;;;;;;;;;17.23;53.27;100173.22;4954350;28;19990;-74
2022/09/24 13:09:52;;;;;;;;;;;;;;;17.16;55.21;100175.56;4954184;28;19925;-74
2022/09/24 13:12:55;;;;;;;;;;;;;;;17.04;55.58;100171.31;4941909;29;19925;-74
2022/09/24 13:16:19;;;;;;;;;;;;;;;17.01;54.84;100172.44;4953984;28;19973;-74
2022/09/24 13:19:32;;;;;;;;;;;;;;;16.98;54.84;100164.78;4953553;28;19993;-74
2022/09/24 13:22:36;;;;;;;;;;;;;;;16.97;57.45;100165.72;4954052;28;20054;-74
2022/09/24 13:25:40;;;;;;;;;;;;;;;16.87;58.03;100165.66;4953657;29;20309;-74
2022/09/24 13:28:46;;;;;;;;;;;;;;;16.91;59.82;100166.22;4953990;28;19932;-74
2022/09/24 13:31:54;;;;;;;;;;;;;;;16.91;60.01;100160.94;4953220;28;19926;-74
2022/09/24 13:35:02;;;;;;;;;;;;;;;16.89;60.69;100163.75;4953617;29;19964;-74
2022/09/24 13:38:14;;;;;;;;;;;;;;;16.86;61.41;100156.06;4953649;29;19925;-74
2022/09/24 13:41:24;;;;;;;;;;;;;;;16.83;61.88;100164.25;4954159;29;19974;-74
2022/09/24 13:44:35;;;;;;;;;;;;;;;16.81;61.87;100160.88;4604862;29;10000247;-74
2022/09/24 13:47:45;;;;;;;;;;;;;;;16.80;61.69;100168.97;4953200;29;20013;-74
2022/09/24 13:50:51;;;;;;;;;;;;;;;16.87;59.41;100163.03;4953366;29;20004;-72
2022/09/24 13:53:58;;;;;;;;;;;;;;;16.96;60.04;100170.16;4956010;29;19961;-73
2022/09/24 13:57:09;;;;;;;;;;;;;;;16.92;60.26;100158.19;4956928;29;19925;-74
2022/09/24 14:00:18;;;;;;;;;;;;;;;16.99;58.59;100157.69;4956766;28;19925;-73
2022/09/24 14:03:27;;;;;;;;;;;;;;;16.97;59.00;100157.78;4956807;29;20176;-73
2022/09/24 14:06:36;;;;;;;;;;;;;;;16.94;59.36;100158.06;4956913;29;20329;-73
2022/09/24 14:09:39;;;;;;;;;;;;;;;17.11;60.34;100157.47;4957225;29;19921;-73
2022/09/24 14:12:42;;;;;;;;;;;;;;;17.20;60.31;100154.03;4956686;29;19921;-73
2022/09/24 14:15:49;;;;;;;;;;;;;;;17.25;60.91;100148.34;4956465;29;19921;-73
2022/09/24 14:19:03;;;;;;;;;;;;;;;17.25;61.59;100143.06;4956694;29;19924;-73
2022/09/24 14:22:30;;;;;;;;;;;;;;;17.19;62.07;100143.59;4959977;28;20065;-72
2022/09/24 14:25:35;;;;;;;;;;;;;;;17.19;61.64;100144.44;4975036;28;19969;-73
2022/09/24 14:28:38;;;;;;;;;;;;;;;17.18;63.59;100142.75;4975624;28;20420;-73
2022/09/24 14:31:44;;;;;;;;;;;;;;;17.19;63.26;100149.72;4955610;28;19921;-73
2022/09/24 14:34:50;;;;;;;;;;;;;;;17.18;62.95;100141.94;4950399;28;19976;-73
2022/09/24 14:38:07;;;;;;;;;;;;;;;17.18;60.18;100142.75;4956893;28;19920;-73
2022/09/24 14:41:19;;;;;;;;;;;;;;;17.17;60.16;100148.19;4970587;28;19925;-73
2022/09/24 14:44:27;;;;;;;;;;;;;;;17.15;57.88;100144.84;4971985;28;20268;-73
2022/09/24 14:47:32;;;;;;;;;;;;;;;17.18;58.70;100140.13;4972304;28;19925;-73
2022/09/24 14:50:39;;;;;;;;;;;;;;;17.14;56.65;100136.06;4959604;28;19940;-74
2022/09/24 14:53:44;;;;;;;;;;;;;;;17.23;56.43;100138.88;4970813;28;19936;-73
2022/09/24 14:56:47;;;;;;;;;;;;;;;17.29;56.33;100141.81;4970473;28;19921;-73
2022/09/24 14:59:51;;;;;;;;;;;;;;;17.27;60.58;100138.50;4971299;28;19972;-73
2022/09/24 15:02:55;;;;;;;;;;;;;;;17.19;59.75;100133.03;4969838;28;19927;-74
2022/09/24 15:06:03;;;;;;;;;;;;;;;17.09;62.08;100132.16;4970424;28;20013;-73
2022/09/24 15:09:19;;;;;;;;;;;;;;;17.11;60.68;100141.63;4970323;28;20485;-73
2022/09/24 15:12:29;;;;;;;;;;;;;;;17.11;56.69;100138.97;4969556;28;19965;-73
2022/09/24 15:15:33;;;;;;;;;;;;;;;17.12;56.85;100137.16;4970635;28;19977;-74
2022/09/24 15:18:36;;;;;;;;;;;;;;;17.11;56.93;100138.97;4958288;28;19928;-74
2022/09/24 15:21:40;;;;;;;;;;;;;;;17.11;56.51;100151.34;4962660;28;19941;-73
2022/09/24 15:24:44;;;;;;;;;;;;;;;17.01;56.42;100146.03;4951066;28;19926;-73
2022/09/24 15:27:53;;;;;;;;;;;;;;;16.93;57.16;100143.19;4950937;28;19952;-73
2022/09/24 15:30:57;;;;;;;;;;;;;;;16.85;57.27;100141.22;4951015;28;20282;-73
2022/09/24 15:34:01;;;;;;;;;;;;;;;16.84;58.12;100152.72;4951333;28;19921;-73
2022/09/24 15:37:04;;;;;;;;;;;;;;;16.80;58.35;100148.66;4951703;28;20384;-73
2022/09/24 15:40:15;;;;;;;;;;;;;;;16.77;58.81;100148.09;4951722;29;19925;-73
2022/09/24 15:43:22;;;;;;;;;;;;;;;16.66;60.40;100157.72;4951657;29;20120;-73
2022/09/24 15:46:26;;;;;;;;;;;;;;;16.65;60.31;100158.66;4950879;29;19925;-73
2022/09/24 15:49:30;;;;;;;;;;;;;;;16.60;60.97;100155.59;4950423;29;19921;-73
2022/09/24 15:52:38;;;;;;;;;;;;;;;16.51;63.22;100157.19;4949585;29;19922;-74
2022/09/24 15:55:41;;;;;;;;;;;;;;;16.47;62.30;100163.69;4949780;29;19927;-73
2022/09/24 15:58:45;;;;;;;;;;;;;;;16.41;64.39;100164.19;4950819;28;19921;-73
2022/09/24 16:01:50;;;;;;;;;;;;;;;16.37;64.39;100168.06;4951507;29;20009;-74
2022/09/24 16:53:30;;;;;;;;;;;;;;;14.41;88.59;100238.50;5004286;28;20331;-73
2022/09/24 17:20:14;;;;;;;;;;;;;;;14.79;89.08;100250.66;4955772;29;19921;-71
2022/09/24 17:43:32;;;;;;;;;;;;;;;14.60;91.51;100262.56;4878687;29;20403;-72
2022/09/24 17:46:45;;;;;;;;;;;;;;;14.65;90.71;100265.69;4889230;29;19925;-72
2022/09/24 17:49:59;;;;;;;;;;;;;;;14.75;90.41;100259.75;4960182;28;20270;-72
2022/09/24 17:53:09;;;;;;;;;;;;;;;14.74;89.91;100266.81;4976209;28;19921;-72
2022/09/24 17:56:14;;;;;;;;;;;;;;;14.72;89.67;100265.25;4966952;28;19920;-72
2022/09/24 17:59:18;;;;;;;;;;;;;;;14.74;89.64;100265.94;4955939;29;19969;-72
2022/09/24 18:02:24;;;;;;;;;;;;;;;14.70;90.14;100275.03;4956268;29;19925;-72
2022/09/24 18:05:29;;;;;;;;;;;;;;;14.66;90.32;100271.78;4955433;29;20282;-72
2022/09/24 18:08:37;;;;;;;;;;;;;;;14.65;89.89;100267.50;4956633;29;19922;-72
2022/09/24 18:11:47;;;;;;;;;;;;;;;14.59;89.89;100270.56;4965653;28;19922;-72
2022/09/24 18:14:57;;;;;;;;;;;;;;;14.65;89.59;100276.22;4955625;29;19930;-72